Airfield :
LOGIN :

Register | Disclaimer

   EN    FR    IT 

 










Legend :    VFR   Marginal VFR   IFR   Intensive IFR   Very Intensive IFR
Visi :
Ceiling :
>= 8 km
>= 3000ft
5 to 8 km
1000 to 3000 ft
1500m to 5 km
500 to 1000 ft
800 to 1500m
200 to 500 ft
< 800m
< 200 ft
Symbols :   Thunderstorms  Fog  Heavy snow  Heavy precipitations  Wind > 20 kt
SIGMETs :     Misc.  Thunderstorms  Icing  Turbulence  Mountain Waves  Volcanic Ashes






- Airport Elevation : 202 ft
- IATA code : LGW


EGKK - London Gatwick

CURRENT METAR :
  • 050720Z 18006KT 140V220 9999 FEW028 16/13 Q1008

EXPIRED METARs :
  • 050650Z 16005KT CAVOK 16/14 Q1008
  • 050620Z VRB02KT 7000 NSC 14/13 Q1009
  • 050550Z 08003KT 6000 NSC 12/11 Q1009
  • 050520Z 10003KT 5000 HZ NSC 11/10 Q1009
  • 050450Z VRB02KT 7000 NSC 12/11 Q1009

TAF TAF EGKK
Valid from the 05 at 06:00 until the 06 at 12:00 UTC


050455Z 0506/0612 17003KT 7000 SCT030
BECMG 0506/0508 9999
PROB30
TEMPO 0506/0508 BKN012
BECMG 0509/0512 17013KT
TEMPO 0514/0520 7000 RA SHRA BKN012
PROB30
TEMPO 0515/0520 4000 +SHRA BKN009
TEMPO 0520/0609 BKN010
PROB30
TEMPO 0520/0612 7000 SHRA



MET'MAP, your aeronautical weather chart ! - Copyright ORBIFLY December 2007 - Disclaimer

ORBIFLY MET'MAP TEAM :

Programming & Development : Alexandra Zaïnal
Concept & original design : Baudouin d'Aumeries
Assistance for programming : Marc-Olivier Méhu
Technical & hardware support : Manuel Goepfert

Contact : metmap@orbifly.com




SOURCES & CREDITS :

   NOAA